sensor_id;sensor_type;location;lat;lon;timestamp;P1;durP1;ratioP1;P2;durP2;ratioP2
68987;SDS011;56038;46.080;11.116;2023-12-28T00:02:42;10.52;;;7.63;;
68987;SDS011;56038;46.080;11.116;2023-12-28T00:07:45;9.77;;;7.22;;
68987;SDS011;56038;46.080;11.116;2023-12-28T00:12:47;9.23;;;7.63;;
68987;SDS011;56038;46.080;11.116;2023-12-28T00:17:49;10.10;;;8.00;;
68987;SDS011;56038;46.080;11.116;2023-12-28T00:22:52;9.02;;;6.68;;
68987;SDS011;56038;46.080;11.116;2023-12-28T00:27:54;10.68;;;7.55;;
68987;SDS011;56038;46.080;11.116;2023-12-28T00:32:55;8.70;;;6.90;;
68987;SDS011;56038;46.080;11.116;2023-12-28T00:37:58;7.72;;;5.80;;
68987;SDS011;56038;46.080;11.116;2023-12-28T00:43:00;10.43;;;7.93;;
68987;SDS011;56038;46.080;11.116;2023-12-28T00:48:02;7.40;;;6.32;;
68987;SDS011;56038;46.080;11.116;2023-12-28T00:53:06;8.80;;;7.13;;
68987;SDS011;56038;46.080;11.116;2023-12-28T00:58:07;9.88;;;7.30;;
68987;SDS011;56038;46.080;11.116;2023-12-28T01:03:09;9.68;;;6.57;;
68987;SDS011;56038;46.080;11.116;2023-12-28T01:08:12;8.82;;;6.80;;
68987;SDS011;56038;46.080;11.116;2023-12-28T01:13:14;10.50;;;6.78;;
68987;SDS011;56038;46.080;11.116;2023-12-28T01:18:16;9.55;;;7.28;;
68987;SDS011;56038;46.080;11.116;2023-12-28T01:23:19;10.13;;;7.30;;
68987;SDS011;56038;46.080;11.116;2023-12-28T01:28:21;9.10;;;7.53;;
68987;SDS011;56038;46.080;11.116;2023-12-28T01:33:22;8.93;;;6.53;;
68987;SDS011;56038;46.080;11.116;2023-12-28T01:38:25;9.90;;;7.47;;
68987;SDS011;56038;46.080;11.116;2023-12-28T01:43:27;7.10;;;6.13;;
68987;SDS011;56038;46.080;11.116;2023-12-28T01:48:29;9.10;;;7.05;;
68987;SDS011;56038;46.080;11.116;2023-12-28T01:53:33;10.50;;;7.70;;
68987;SDS011;56038;46.080;11.116;2023-12-28T01:58:35;8.52;;;7.18;;
68987;SDS011;56038;46.080;11.116;2023-12-28T02:03:38;9.40;;;7.47;;
68987;SDS011;56038;46.080;11.116;2023-12-28T02:08:41;9.75;;;7.03;;
68987;SDS011;56038;46.080;11.116;2023-12-28T02:13:43;9.18;;;6.78;;
68987;SDS011;56038;46.080;11.116;2023-12-28T02:18:46;9.50;;;6.70;;
68987;SDS011;56038;46.080;11.116;2023-12-28T02:23:52;8.17;;;6.47;;
68987;SDS011;56038;46.080;11.116;2023-12-28T02:28:55;9.73;;;6.45;;
68987;SDS011;56038;46.080;11.116;2023-12-28T02:33:58;8.70;;;6.07;;
68987;SDS011;56038;46.080;11.116;2023-12-28T02:39:05;8.27;;;7.00;;
68987;SDS011;56038;46.080;11.116;2023-12-28T02:44:09;7.47;;;6.47;;
68987;SDS011;56038;46.080;11.116;2023-12-28T02:49:10;7.05;;;5.63;;
68987;SDS011;56038;46.080;11.116;2023-12-28T02:54:12;10.00;;;6.85;;
68987;SDS011;56038;46.080;11.116;2023-12-28T02:59:15;7.38;;;5.88;;
68987;SDS011;56038;46.080;11.116;2023-12-28T03:04:17;7.95;;;6.05;;
68987;SDS011;56038;46.080;11.116;2023-12-28T03:09:19;10.60;;;7.03;;
68987;SDS011;56038;46.080;11.116;2023-12-28T03:14:22;9.25;;;5.63;;
68987;SDS011;56038;46.080;11.116;2023-12-28T03:19:24;7.90;;;6.07;;
68987;SDS011;56038;46.080;11.116;2023-12-28T03:24:25;8.40;;;6.20;;
68987;SDS011;56038;46.080;11.116;2023-12-28T03:29:28;7.28;;;5.28;;
68987;SDS011;56038;46.080;11.116;2023-12-28T03:34:30;7.20;;;5.32;;
68987;SDS011;56038;46.080;11.116;2023-12-28T03:39:32;6.35;;;4.88;;
68987;SDS011;56038;46.080;11.116;2023-12-28T03:44:35;7.75;;;5.75;;
68987;SDS011;56038;46.080;11.116;2023-12-28T03:49:38;6.45;;;5.07;;
68987;SDS011;56038;46.080;11.116;2023-12-28T03:54:40;7.82;;;5.40;;
68987;SDS011;56038;46.080;11.116;2023-12-28T03:59:43;6.88;;;5.15;;
68987;SDS011;56038;46.080;11.116;2023-12-28T04:04:48;7.57;;;5.07;;
68987;SDS011;56038;46.080;11.116;2023-12-28T04:09:50;6.13;;;4.72;;
68987;SDS011;56038;46.080;11.116;2023-12-28T04:14:53;6.63;;;5.10;;
68987;SDS011;56038;46.080;11.116;2023-12-28T04:19:55;9.05;;;5.88;;
68987;SDS011;56038;46.080;11.116;2023-12-28T04:24:56;6.00;;;4.53;;
68987;SDS011;56038;46.080;11.116;2023-12-28T04:29:59;7.60;;;5.20;;
68987;SDS011;56038;46.080;11.116;2023-12-28T04:35:01;7.88;;;5.18;;
68987;SDS011;56038;46.080;11.116;2023-12-28T04:40:03;5.50;;;4.47;;
68987;SDS011;56038;46.080;11.116;2023-12-28T04:45:11;6.90;;;5.10;;
68987;SDS011;56038;46.080;11.116;2023-12-28T04:50:13;7.32;;;4.65;;
68987;SDS011;56038;46.080;11.116;2023-12-28T04:55:14;8.23;;;4.78;;
68987;SDS011;56038;46.080;11.116;2023-12-28T05:00:18;6.88;;;4.80;;
68987;SDS011;56038;46.080;11.116;2023-12-28T05:05:20;7.53;;;4.05;;
68987;SDS011;56038;46.080;11.116;2023-12-28T05:10:22;5.32;;;4.55;;
68987;SDS011;56038;46.080;11.116;2023-12-28T05:15:25;5.13;;;4.20;;
68987;SDS011;56038;46.080;11.116;2023-12-28T05:20:26;6.95;;;4.55;;
68987;SDS011;56038;46.080;11.116;2023-12-28T05:25:28;5.13;;;4.63;;
68987;SDS011;56038;46.080;11.116;2023-12-28T05:30:31;5.07;;;4.55;;
68987;SDS011;56038;46.080;11.116;2023-12-28T05:35:33;7.75;;;4.70;;
68987;SDS011;56038;46.080;11.116;2023-12-28T05:40:34;6.75;;;5.53;;
68987;SDS011;56038;46.080;11.116;2023-12-28T05:45:37;6.15;;;4.55;;
68987;SDS011;56038;46.080;11.116;2023-12-28T05:50:39;6.82;;;4.80;;
68987;SDS011;56038;46.080;11.116;2023-12-28T05:55:41;6.30;;;4.60;;
68987;SDS011;56038;46.080;11.116;2023-12-28T06:00:44;5.50;;;4.90;;
68987;SDS011;56038;46.080;11.116;2023-12-28T06:05:48;4.93;;;4.43;;
68987;SDS011;56038;46.080;11.116;2023-12-28T06:10:49;6.40;;;4.88;;
68987;SDS011;56038;46.080;11.116;2023-12-28T06:15:52;4.82;;;4.38;;
68987;SDS011;56038;46.080;11.116;2023-12-28T06:20:54;5.28;;;4.25;;
68987;SDS011;56038;46.080;11.116;2023-12-28T06:25:56;5.65;;;4.55;;
68987;SDS011;56038;46.080;11.116;2023-12-28T06:31:00;5.50;;;3.58;;
68987;SDS011;56038;46.080;11.116;2023-12-28T06:36:06;5.93;;;4.25;;
68987;SDS011;56038;46.080;11.116;2023-12-28T06:41:12;6.20;;;4.38;;
68987;SDS011;56038;46.080;11.116;2023-12-28T06:46:16;4.70;;;4.25;;
68987;SDS011;56038;46.080;11.116;2023-12-28T06:51:18;4.85;;;4.35;;
68987;SDS011;56038;46.080;11.116;2023-12-28T06:56:21;7.00;;;4.47;;
68987;SDS011;56038;46.080;11.116;2023-12-28T07:01:24;7.97;;;5.03;;
68987;SDS011;56038;46.080;11.116;2023-12-28T07:06:26;6.10;;;4.40;;
68987;SDS011;56038;46.080;11.116;2023-12-28T07:11:28;5.15;;;4.00;;
68987;SDS011;56038;46.080;11.116;2023-12-28T07:16:31;6.35;;;4.88;;
68987;SDS011;56038;46.080;11.116;2023-12-28T07:21:33;6.10;;;4.38;;
68987;SDS011;56038;46.080;11.116;2023-12-28T07:26:35;5.68;;;4.03;;
68987;SDS011;56038;46.080;11.116;2023-12-28T07:31:38;6.60;;;4.88;;
68987;SDS011;56038;46.080;11.116;2023-12-28T07:36:39;4.28;;;3.88;;
68987;SDS011;56038;46.080;11.116;2023-12-28T07:41:43;5.90;;;4.70;;
68987;SDS011;56038;46.080;11.116;2023-12-28T07:46:46;5.97;;;4.82;;
68987;SDS011;56038;46.080;11.116;2023-12-28T07:51:48;8.55;;;5.10;;
68987;SDS011;56038;46.080;11.116;2023-12-28T07:56:50;6.72;;;4.07;;
68987;SDS011;56038;46.080;11.116;2023-12-28T08:01:53;4.32;;;3.78;;
68987;SDS011;56038;46.080;11.116;2023-12-28T08:06:54;5.65;;;4.57;;
68987;SDS011;56038;46.080;11.116;2023-12-28T08:11:58;7.18;;;5.00;;
68987;SDS011;56038;46.080;11.116;2023-12-28T08:17:04;4.95;;;3.45;;
68987;SDS011;56038;46.080;11.116;2023-12-28T08:22:05;5.38;;;4.28;;
68987;SDS011;56038;46.080;11.116;2023-12-28T08:27:07;8.68;;;5.68;;
68987;SDS011;56038;46.080;11.116;2023-12-28T08:32:10;5.10;;;4.07;;
68987;SDS011;56038;46.080;11.116;2023-12-28T08:37:12;7.68;;;4.53;;
68987;SDS011;56038;46.080;11.116;2023-12-28T08:42:13;5.97;;;4.50;;
68987;SDS011;56038;46.080;11.116;2023-12-28T08:47:17;6.60;;;4.93;;
68987;SDS011;56038;46.080;11.116;2023-12-28T08:52:18;6.00;;;4.63;;
68987;SDS011;56038;46.080;11.116;2023-12-28T08:57:20;5.38;;;4.60;;
68987;SDS011;56038;46.080;11.116;2023-12-28T09:02:23;7.18;;;5.22;;
68987;SDS011;56038;46.080;11.116;2023-12-28T09:07:25;9.38;;;5.22;;
68987;SDS011;56038;46.080;11.116;2023-12-28T09:12:27;8.75;;;4.47;;
68987;SDS011;56038;46.080;11.116;2023-12-28T09:17:30;5.07;;;4.07;;
68987;SDS011;56038;46.080;11.116;2023-12-28T09:22:32;8.73;;;4.82;;
68987;SDS011;56038;46.080;11.116;2023-12-28T09:27:34;6.07;;;4.32;;
68987;SDS011;56038;46.080;11.116;2023-12-28T09:32:37;4.43;;;3.97;;
68987;SDS011;56038;46.080;11.116;2023-12-28T09:37:39;5.97;;;4.95;;
68987;SDS011;56038;46.080;11.116;2023-12-28T09:42:43;6.32;;;5.45;;
68987;SDS011;56038;46.080;11.116;2023-12-28T09:47:54;8.73;;;4.72;;
68987;SDS011;56038;46.080;11.116;2023-12-28T09:52:56;6.03;;;4.65;;
68987;SDS011;56038;46.080;11.116;2023-12-28T09:57:58;6.47;;;4.68;;
68987;SDS011;56038;46.080;11.116;2023-12-28T10:03:04;8.30;;;5.28;;
68987;SDS011;56038;46.080;11.116;2023-12-28T10:08:06;6.30;;;5.38;;
68987;SDS011;56038;46.080;11.116;2023-12-28T10:13:07;7.70;;;5.93;;
68987;SDS011;56038;46.080;11.116;2023-12-28T10:18:11;6.82;;;4.88;;
68987;SDS011;56038;46.080;11.116;2023-12-28T10:23:13;6.07;;;4.82;;
68987;SDS011;56038;46.080;11.116;2023-12-28T10:28:15;5.70;;;4.97;;
68987;SDS011;56038;46.080;11.116;2023-12-28T10:33:20;6.63;;;5.15;;
68987;SDS011;56038;46.080;11.116;2023-12-28T10:38:22;5.60;;;4.88;;
68987;SDS011;56038;46.080;11.116;2023-12-28T10:43:26;5.22;;;4.18;;
68987;SDS011;56038;46.080;11.116;2023-12-28T10:48:32;5.93;;;4.57;;
68987;SDS011;56038;46.080;11.116;2023-12-28T10:53:42;7.10;;;5.10;;
68987;SDS011;56038;46.080;11.116;2023-12-28T10:58:51;5.40;;;4.78;;
68987;SDS011;56038;46.080;11.116;2023-12-28T11:04:00;6.65;;;4.63;;
68987;SDS011;56038;46.080;11.116;2023-12-28T11:09:05;5.03;;;4.30;;
68987;SDS011;56038;46.080;11.116;2023-12-28T11:14:08;5.60;;;4.88;;
68987;SDS011;56038;46.080;11.116;2023-12-28T11:19:11;5.68;;;5.07;;
68987;SDS011;56038;46.080;11.116;2023-12-28T11:24:14;7.38;;;4.93;;
68987;SDS011;56038;46.080;11.116;2023-12-28T11:29:18;8.43;;;5.32;;
68987;SDS011;56038;46.080;11.116;2023-12-28T11:34:25;6.05;;;5.38;;
68987;SDS011;56038;46.080;11.116;2023-12-28T11:39:29;6.30;;;4.78;;
68987;SDS011;56038;46.080;11.116;2023-12-28T11:44:37;6.70;;;5.47;;
68987;SDS011;56038;46.080;11.116;2023-12-28T11:49:41;5.65;;;5.10;;
68987;SDS011;56038;46.080;11.116;2023-12-28T11:54:47;6.45;;;5.30;;
68987;SDS011;56038;46.080;11.116;2023-12-28T11:59:52;8.77;;;7.88;;
68987;SDS011;56038;46.080;11.116;2023-12-28T12:04:56;8.60;;;7.40;;
68987;SDS011;56038;46.080;11.116;2023-12-28T12:09:58;12.52;;;8.60;;
68987;SDS011;56038;46.080;11.116;2023-12-28T12:15:00;8.07;;;6.57;;
68987;SDS011;56038;46.080;11.116;2023-12-28T12:20:04;6.60;;;5.93;;
68987;SDS011;56038;46.080;11.116;2023-12-28T12:25:06;7.75;;;5.95;;
68987;SDS011;56038;46.080;11.116;2023-12-28T12:30:10;7.30;;;6.25;;
68987;SDS011;56038;46.080;11.116;2023-12-28T12:35:14;7.80;;;6.07;;
68987;SDS011;56038;46.080;11.116;2023-12-28T12:40:17;10.50;;;7.97;;
68987;SDS011;56038;46.080;11.116;2023-12-28T12:45:22;9.52;;;8.07;;
68987;SDS011;56038;46.080;11.116;2023-12-28T12:50:26;7.50;;;6.30;;
68987;SDS011;56038;46.080;11.116;2023-12-28T12:55:29;6.20;;;5.35;;
68987;SDS011;56038;46.080;11.116;2023-12-28T13:00:31;6.40;;;5.47;;
68987;SDS011;56038;46.080;11.116;2023-12-28T13:05:36;6.75;;;5.05;;
68987;SDS011;56038;46.080;11.116;2023-12-28T13:10:38;5.80;;;5.20;;
68987;SDS011;56038;46.080;11.116;2023-12-28T13:15:40;7.25;;;5.50;;
68987;SDS011;56038;46.080;11.116;2023-12-28T13:20:43;6.90;;;5.35;;
68987;SDS011;56038;46.080;11.116;2023-12-28T13:25:46;9.35;;;6.00;;
68987;SDS011;56038;46.080;11.116;2023-12-28T13:30:47;8.48;;;5.43;;
68987;SDS011;56038;46.080;11.116;2023-12-28T13:35:52;5.22;;;4.72;;
68987;SDS011;56038;46.080;11.116;2023-12-28T13:40:54;5.85;;;5.22;;
68987;SDS011;56038;46.080;11.116;2023-12-28T13:45:55;5.53;;;4.80;;
68987;SDS011;56038;46.080;11.116;2023-12-28T13:50:59;8.60;;;5.78;;
68987;SDS011;56038;46.080;11.116;2023-12-28T13:56:00;7.00;;;6.30;;
68987;SDS011;56038;46.080;11.116;2023-12-28T14:01:03;6.75;;;5.35;;
68987;SDS011;56038;46.080;11.116;2023-12-28T14:06:07;6.63;;;5.45;;
68987;SDS011;56038;46.080;11.116;2023-12-28T14:11:09;6.57;;;5.95;;
68987;SDS011;56038;46.080;11.116;2023-12-28T14:16:11;7.90;;;5.95;;
68987;SDS011;56038;46.080;11.116;2023-12-28T14:21:15;7.03;;;5.88;;
68987;SDS011;56038;46.080;11.116;2023-12-28T14:26:17;5.95;;;5.30;;
68987;SDS011;56038;46.080;11.116;2023-12-28T14:31:20;6.47;;;5.82;;
68987;SDS011;56038;46.080;11.116;2023-12-28T14:36:26;7.70;;;5.30;;
68987;SDS011;56038;46.080;11.116;2023-12-28T14:41:32;6.30;;;5.70;;
68987;SDS011;56038;46.080;11.116;2023-12-28T14:46:34;7.13;;;5.65;;
68987;SDS011;56038;46.080;11.116;2023-12-28T14:51:37;8.70;;;5.15;;
68987;SDS011;56038;46.080;11.116;2023-12-28T14:56:39;8.20;;;6.00;;
68987;SDS011;56038;46.080;11.116;2023-12-28T15:01:41;5.47;;;4.88;;
68987;SDS011;56038;46.080;11.116;2023-12-28T15:06:44;6.63;;;5.25;;
68987;SDS011;56038;46.080;11.116;2023-12-28T15:11:46;5.22;;;4.72;;
68987;SDS011;56038;46.080;11.116;2023-12-28T15:16:48;6.18;;;4.90;;
68987;SDS011;56038;46.080;11.116;2023-12-28T15:21:52;6.78;;;4.85;;
68987;SDS011;56038;46.080;11.116;2023-12-28T15:26:54;6.60;;;5.57;;
68987;SDS011;56038;46.080;11.116;2023-12-28T15:31:56;6.00;;;5.38;;
68987;SDS011;56038;46.080;11.116;2023-12-28T15:36:59;6.53;;;5.40;;
68987;SDS011;56038;46.080;11.116;2023-12-28T15:42:01;7.18;;;5.15;;
68987;SDS011;56038;46.080;11.116;2023-12-28T15:47:03;6.70;;;5.15;;
68987;SDS011;56038;46.080;11.116;2023-12-28T15:52:06;8.00;;;5.65;;
68987;SDS011;56038;46.080;11.116;2023-12-28T15:57:08;6.43;;;5.60;;
68987;SDS011;56038;46.080;11.116;2023-12-28T16:02:10;8.50;;;5.40;;
68987;SDS011;56038;46.080;11.116;2023-12-28T16:07:13;6.40;;;5.40;;
68987;SDS011;56038;46.080;11.116;2023-12-28T16:12:15;8.57;;;5.45;;
68987;SDS011;56038;46.080;11.116;2023-12-28T16:17:18;7.20;;;4.75;;
68987;SDS011;56038;46.080;11.116;2023-12-28T16:22:23;7.28;;;5.95;;
68987;SDS011;56038;46.080;11.116;2023-12-28T16:27:26;8.85;;;5.15;;
68987;SDS011;56038;46.080;11.116;2023-12-28T16:32:28;8.57;;;6.32;;
68987;SDS011;56038;46.080;11.116;2023-12-28T16:37:31;7.13;;;5.90;;
68987;SDS011;56038;46.080;11.116;2023-12-28T16:42:33;10.45;;;6.53;;
68987;SDS011;56038;46.080;11.116;2023-12-28T16:47:35;9.73;;;6.28;;
68987;SDS011;56038;46.080;11.116;2023-12-28T16:52:38;8.80;;;5.80;;
68987;SDS011;56038;46.080;11.116;2023-12-28T16:57:40;8.63;;;6.00;;
68987;SDS011;56038;46.080;11.116;2023-12-28T17:02:42;9.77;;;5.93;;
68987;SDS011;56038;46.080;11.116;2023-12-28T17:07:45;8.15;;;5.40;;
68987;SDS011;56038;46.080;11.116;2023-12-28T17:12:48;11.27;;;6.25;;
68987;SDS011;56038;46.080;11.116;2023-12-28T17:17:50;8.77;;;6.22;;
68987;SDS011;56038;46.080;11.116;2023-12-28T17:22:55;6.20;;;5.60;;
68987;SDS011;56038;46.080;11.116;2023-12-28T17:28:03;8.70;;;6.18;;
68987;SDS011;56038;46.080;11.116;2023-12-28T17:33:06;6.45;;;5.80;;
68987;SDS011;56038;46.080;11.116;2023-12-28T17:38:13;6.43;;;5.65;;
68987;SDS011;56038;46.080;11.116;2023-12-28T17:43:15;9.90;;;7.63;;
68987;SDS011;56038;46.080;11.116;2023-12-28T17:48:22;9.88;;;7.05;;
68987;SDS011;56038;46.080;11.116;2023-12-28T17:53:29;8.15;;;6.47;;
68987;SDS011;56038;46.080;11.116;2023-12-28T17:58:31;8.93;;;6.43;;
68987;SDS011;56038;46.080;11.116;2023-12-28T18:03:33;6.93;;;5.68;;
68987;SDS011;56038;46.080;11.116;2023-12-28T18:08:36;31.30;;;19.35;;
68987;SDS011;56038;46.080;11.116;2023-12-28T18:13:38;9.95;;;7.97;;
68987;SDS011;56038;46.080;11.116;2023-12-28T18:18:40;10.35;;;6.95;;
68987;SDS011;56038;46.080;11.116;2023-12-28T18:23:43;10.80;;;7.35;;
68987;SDS011;56038;46.080;11.116;2023-12-28T18:28:46;8.27;;;6.40;;
68987;SDS011;56038;46.080;11.116;2023-12-28T18:33:47;12.65;;;7.82;;
68987;SDS011;56038;46.080;11.116;2023-12-28T18:38:51;10.73;;;7.72;;
68987;SDS011;56038;46.080;11.116;2023-12-28T18:55:20;9.40;;;7.53;;
68987;SDS011;56038;46.080;11.116;2023-12-28T19:00:22;9.15;;;6.97;;
68987;SDS011;56038;46.080;11.116;2023-12-28T19:11:23;7.72;;;5.93;;
68987;SDS011;56038;46.080;11.116;2023-12-28T19:21:52;8.55;;;6.75;;
68987;SDS011;56038;46.080;11.116;2023-12-28T19:26:55;7.95;;;6.20;;
68987;SDS011;56038;46.080;11.116;2023-12-28T19:31:57;10.10;;;7.20;;
68987;SDS011;56038;46.080;11.116;2023-12-28T19:37:00;8.90;;;7.15;;
68987;SDS011;56038;46.080;11.116;2023-12-28T19:42:05;8.73;;;7.00;;
68987;SDS011;56038;46.080;11.116;2023-12-28T19:47:07;10.60;;;7.35;;
68987;SDS011;56038;46.080;11.116;2023-12-28T19:52:09;7.57;;;6.25;;
68987;SDS011;56038;46.080;11.116;2023-12-28T19:57:14;10.52;;;7.97;;
68987;SDS011;56038;46.080;11.116;2023-12-28T20:02:17;10.88;;;7.80;;
68987;SDS011;56038;46.080;11.116;2023-12-28T20:07:28;10.68;;;8.07;;
68987;SDS011;56038;46.080;11.116;2023-12-28T20:12:32;13.35;;;7.43;;
68987;SDS011;56038;46.080;11.116;2023-12-28T20:17:34;12.13;;;8.27;;
68987;SDS011;56038;46.080;11.116;2023-12-28T20:22:37;10.73;;;7.63;;
68987;SDS011;56038;46.080;11.116;2023-12-28T20:27:42;9.32;;;6.97;;
68987;SDS011;56038;46.080;11.116;2023-12-28T20:32:44;13.20;;;8.13;;
68987;SDS011;56038;46.080;11.116;2023-12-28T20:37:47;12.45;;;8.10;;
68987;SDS011;56038;46.080;11.116;2023-12-28T20:42:51;12.68;;;8.43;;
68987;SDS011;56038;46.080;11.116;2023-12-28T20:47:52;9.60;;;7.50;;
68987;SDS011;56038;46.080;11.116;2023-12-28T20:52:55;9.65;;;7.45;;
68987;SDS011;56038;46.080;11.116;2023-12-28T20:58:01;13.60;;;8.82;;
68987;SDS011;56038;46.080;11.116;2023-12-28T21:03:04;10.07;;;7.80;;
68987;SDS011;56038;46.080;11.116;2023-12-28T21:08:07;9.27;;;6.78;;
68987;SDS011;56038;46.080;11.116;2023-12-28T21:19:07;10.23;;;7.13;;
68987;SDS011;56038;46.080;11.116;2023-12-28T21:35:11;10.15;;;7.50;;
68987;SDS011;56038;46.080;11.116;2023-12-28T21:40:15;7.82;;;6.65;;
68987;SDS011;56038;46.080;11.116;2023-12-28T21:45:17;11.95;;;7.57;;
68987;SDS011;56038;46.080;11.116;2023-12-28T21:50:21;11.88;;;7.95;;
68987;SDS011;56038;46.080;11.116;2023-12-28T21:55:23;13.18;;;7.45;;
68987;SDS011;56038;46.080;11.116;2023-12-28T22:00:25;10.68;;;8.00;;
68987;SDS011;56038;46.080;11.116;2023-12-28T22:05:28;13.15;;;7.95;;
68987;SDS011;56038;46.080;11.116;2023-12-28T22:10:30;10.05;;;8.15;;
68987;SDS011;56038;46.080;11.116;2023-12-28T22:15:34;7.75;;;6.20;;
68987;SDS011;56038;46.080;11.116;2023-12-28T22:20:38;9.05;;;7.53;;
68987;SDS011;56038;46.080;11.116;2023-12-28T22:25:40;10.38;;;7.65;;
68987;SDS011;56038;46.080;11.116;2023-12-28T22:30:42;9.20;;;7.18;;
68987;SDS011;56038;46.080;11.116;2023-12-28T22:35:45;9.88;;;7.20;;
68987;SDS011;56038;46.080;11.116;2023-12-28T22:40:48;9.00;;;6.15;;
68987;SDS011;56038;46.080;11.116;2023-12-28T22:45:50;10.50;;;8.38;;
68987;SDS011;56038;46.080;11.116;2023-12-28T22:50:53;10.32;;;7.00;;
68987;SDS011;56038;46.080;11.116;2023-12-28T22:55:55;11.52;;;7.68;;
68987;SDS011;56038;46.080;11.116;2023-12-28T23:00:57;9.43;;;7.05;;
68987;SDS011;56038;46.080;11.116;2023-12-28T23:06:01;9.48;;;7.68;;
68987;SDS011;56038;46.080;11.116;2023-12-28T23:11:03;9.63;;;6.88;;
68987;SDS011;56038;46.080;11.116;2023-12-28T23:16:05;9.95;;;6.97;;
68987;SDS011;56038;46.080;11.116;2023-12-28T23:21:09;12.13;;;7.45;;
68987;SDS011;56038;46.080;11.116;2023-12-28T23:26:17;8.10;;;6.60;;
68987;SDS011;56038;46.080;11.116;2023-12-28T23:31:20;7.82;;;6.57;;
68987;SDS011;56038;46.080;11.116;2023-12-28T23:36:24;8.60;;;6.72;;
68987;SDS011;56038;46.080;11.116;2023-12-28T23:41:26;8.52;;;6.50;;
68987;SDS011;56038;46.080;11.116;2023-12-28T23:46:28;8.60;;;6.50;;
68987;SDS011;56038;46.080;11.116;2023-12-28T23:51:31;8.55;;;6.70;;
68987;SDS011;56038;46.080;11.116;2023-12-28T23:56:33;9.38;;;6.57;;
